createdAt,value
2022-11-28T00:02:09.490Z,9.30
2022-11-28T00:04:55.206Z,9.30
2022-11-28T00:07:40.600Z,9.30
2022-11-28T00:10:26.262Z,9.40
2022-11-28T00:13:12.248Z,9.40
2022-11-28T00:15:59.320Z,9.40
2022-11-28T00:18:45.049Z,9.40
2022-11-28T00:21:31.526Z,9.50
2022-11-28T00:24:16.734Z,9.50
2022-11-28T00:27:02.406Z,9.50
2022-11-28T00:29:47.671Z,9.50
2022-11-28T00:32:34.806Z,9.50
2022-11-28T00:35:21.056Z,9.50
2022-11-28T00:38:06.477Z,9.50
2022-11-28T00:41:02.849Z,9.50
2022-11-28T00:43:50.293Z,9.60
2022-11-28T00:46:36.121Z,9.60
2022-11-28T00:49:21.410Z,9.60
2022-11-28T00:52:07.177Z,9.60
2022-11-28T00:54:52.515Z,9.70
2022-11-28T00:57:38.305Z,9.70
2022-11-28T01:00:24.012Z,9.70
2022-11-28T01:03:09.280Z,9.70
2022-11-28T01:05:54.615Z,9.80
2022-11-28T01:08:41.143Z,9.80
2022-11-28T01:11:27.690Z,9.80
2022-11-28T01:14:13.757Z,9.80
2022-11-28T01:16:58.977Z,9.90
2022-11-28T01:19:44.459Z,9.90
2022-11-28T01:22:33.026Z,10.00
2022-11-28T01:25:18.570Z,10.00
2022-11-28T01:28:04.407Z,10.10
2022-11-28T01:30:53.420Z,10.10
2022-11-28T01:33:38.538Z,10.10
2022-11-28T01:36:24.927Z,10.20
2022-11-28T01:39:11.135Z,10.20
2022-11-28T01:41:57.127Z,10.20
2022-11-28T01:44:51.222Z,10.20
2022-11-28T01:47:36.512Z,10.30
2022-11-28T01:50:23.105Z,10.30
2022-11-28T01:53:10.401Z,10.30
2022-11-28T01:56:05.114Z,10.40
2022-11-28T01:58:54.809Z,10.30
2022-11-28T02:01:40.520Z,10.40
2022-11-28T02:04:27.957Z,10.40
2022-11-28T02:07:16.622Z,10.40
2022-11-28T02:10:05.889Z,10.50
2022-11-28T02:13:21.563Z,10.40
2022-11-28T02:16:28.374Z,10.50
2022-11-28T02:20:00.379Z,10.60
2022-11-28T02:23:17.863Z,10.60
2022-11-28T02:26:27.973Z,10.60
2022-11-28T02:30:09.358Z,10.60
2022-11-28T02:33:14.480Z,10.60
2022-11-28T02:36:15.278Z,10.60
2022-11-28T02:39:20.896Z,10.60
2022-11-28T02:42:12.068Z,10.70
2022-11-28T02:45:28.135Z,10.60
2022-11-28T02:48:55.003Z,10.70
2022-11-28T02:51:52.993Z,10.60
2022-11-28T02:54:39.661Z,10.70
2022-11-28T02:57:51.360Z,10.70
2022-11-28T03:00:38.804Z,10.70
2022-11-28T03:03:47.499Z,10.70
2022-11-28T03:06:52.280Z,10.70
2022-11-28T03:10:06.921Z,10.70
2022-11-28T03:13:14.226Z,10.70
2022-11-28T03:16:21.702Z,10.70
2022-11-28T03:19:27.568Z,10.70
2022-11-28T03:22:21.908Z,10.70
2022-11-28T03:25:33.915Z,10.60
2022-11-28T03:28:31.384Z,10.60
2022-11-28T03:31:31.587Z,10.60
2022-11-28T03:34:20.870Z,10.60
2022-11-28T03:37:14.522Z,10.60
2022-11-28T03:40:04.214Z,10.60
2022-11-28T03:43:17.007Z,10.60
2022-11-28T03:46:08.621Z,10.60
2022-11-28T03:48:58.913Z,10.60
2022-11-28T03:51:57.223Z,10.60
2022-11-28T03:54:58.991Z,10.60
2022-11-28T03:58:10.750Z,10.60
2022-11-28T04:01:21.400Z,10.50
2022-11-28T04:04:30.713Z,10.50
2022-11-28T04:07:27.179Z,10.50
2022-11-28T04:10:24.460Z,10.50
2022-11-28T04:13:51.456Z,10.50
2022-11-28T04:16:53.397Z,10.50
2022-11-28T04:19:48.686Z,10.50
2022-11-28T04:22:50.821Z,10.50
2022-11-28T04:25:40.249Z,10.40
2022-11-28T04:28:29.924Z,10.50
2022-11-28T04:31:17.957Z,10.50
2022-11-28T04:34:08.419Z,10.50
2022-11-28T04:36:55.222Z,10.50
2022-11-28T04:39:45.274Z,10.40
2022-11-28T04:42:36.685Z,10.40
2022-11-28T04:45:37.783Z,10.40
2022-11-28T04:48:31.199Z,10.40
2022-11-28T04:51:21.617Z,10.40
2022-11-28T04:54:12.556Z,10.40
2022-11-28T04:57:10.847Z,10.40
2022-11-28T04:59:57.370Z,10.40
2022-11-28T05:02:44.703Z,10.40
2022-11-28T05:05:30.390Z,10.40
2022-11-28T05:08:17.200Z,10.50
2022-11-28T05:11:02.270Z,10.40
2022-11-28T05:13:47.903Z,10.40
2022-11-28T05:16:33.370Z,10.40
2022-11-28T05:19:19.084Z,10.40
2022-11-28T05:22:07.666Z,10.40
2022-11-28T05:24:53.377Z,10.40
2022-11-28T05:27:38.949Z,10.30
2022-11-28T05:30:27.055Z,10.30
2022-11-28T05:33:12.289Z,10.40
2022-11-28T05:36:02.550Z,10.40
2022-11-28T05:38:48.447Z,10.40
2022-11-28T05:41:34.226Z,10.40
2022-11-28T05:44:26.729Z,10.40
2022-11-28T05:47:12.596Z,10.40
2022-11-28T05:49:58.179Z,10.40
2022-11-28T05:52:43.559Z,10.40
2022-11-28T05:55:28.994Z,10.40
2022-11-28T05:58:14.720Z,10.40
2022-11-28T06:01:00.213Z,10.40
2022-11-28T06:03:46.376Z,10.40
2022-11-28T06:06:34.635Z,10.40
2022-11-28T06:09:25.831Z,10.40
2022-11-28T06:12:11.527Z,10.40
2022-11-28T06:14:59.715Z,10.40
2022-11-28T06:17:45.059Z,10.40
2022-11-28T06:20:30.636Z,10.40
2022-11-28T06:23:18.906Z,10.40
2022-11-28T06:26:09.937Z,10.40
2022-11-28T06:28:58.353Z,10.40
2022-11-28T06:31:43.697Z,10.40
2022-11-28T06:34:29.474Z,10.40
2022-11-28T06:37:20.653Z,10.40
2022-11-28T06:40:06.437Z,10.50
2022-11-28T06:42:52.138Z,10.40
2022-11-28T06:45:37.363Z,10.50
2022-11-28T06:48:23.653Z,10.50
2022-11-28T06:51:09.138Z,10.50
2022-11-28T06:53:54.837Z,10.50
2022-11-28T06:56:41.480Z,10.50
2022-11-28T06:59:26.849Z,10.50
2022-11-28T07:02:12.355Z,10.50
2022-11-28T07:04:57.674Z,10.50
2022-11-28T07:07:53.583Z,10.50
2022-11-28T07:10:40.152Z,10.60
2022-11-28T07:13:25.772Z,10.60
2022-11-28T07:16:18.414Z,10.60
2022-11-28T07:19:04.538Z,10.60
2022-11-28T07:21:53.334Z,10.60
2022-11-28T07:24:38.647Z,10.60
2022-11-28T07:27:24.178Z,10.70
2022-11-28T07:30:10.423Z,10.70
2022-11-28T07:32:55.877Z,10.70
2022-11-28T07:35:43.971Z,10.70
2022-11-28T07:38:32.122Z,10.70
2022-11-28T07:41:19.688Z,10.70
2022-11-28T07:44:07.866Z,10.70
2022-11-28T07:46:53.645Z,10.70
2022-11-28T07:49:44.966Z,10.70
2022-11-28T07:52:30.727Z,10.70
2022-11-28T07:55:16.430Z,10.70
2022-11-28T07:58:02.469Z,10.80
2022-11-28T08:00:54.292Z,10.80
2022-11-28T08:03:39.669Z,10.80
2022-11-28T08:06:28.757Z,10.90
2022-11-28T08:09:15.494Z,10.90
2022-11-28T08:12:00.739Z,10.90
2022-11-28T08:14:46.253Z,10.90
2022-11-28T08:17:33.279Z,11.00
2022-11-28T08:20:18.875Z,11.00
2022-11-28T08:23:04.475Z,11.00
2022-11-28T08:25:49.750Z,10.90
2022-11-28T08:28:37.538Z,11.00
2022-11-28T08:31:26.265Z,11.00
2022-11-28T08:34:14.238Z,10.90
2022-11-28T08:37:02.273Z,11.00
2022-11-28T08:39:47.454Z,11.00
2022-11-28T08:42:36.124Z,11.00
2022-11-28T08:45:21.534Z,11.00
2022-11-28T08:48:06.804Z,11.00
2022-11-28T08:50:52.229Z,11.10
2022-11-28T08:53:37.974Z,11.10
2022-11-28T08:56:23.719Z,11.10
2022-11-28T08:59:09.924Z,11.20
2022-11-28T09:01:55.436Z,11.30
2022-11-28T09:04:40.931Z,11.20
2022-11-28T09:07:26.156Z,11.30
2022-11-28T09:10:11.994Z,11.30
2022-11-28T09:12:57.324Z,11.40
2022-11-28T09:15:51.279Z,11.40
2022-11-28T09:18:41.569Z,11.40
2022-11-28T09:21:27.227Z,11.50
2022-11-28T09:24:14.090Z,11.60
2022-11-28T09:26:59.715Z,11.60
2022-11-28T09:29:45.343Z,11.60
2022-11-28T09:32:30.794Z,11.70
2022-11-28T09:35:17.872Z,11.70
2022-11-28T09:38:03.449Z,11.70
2022-11-28T09:40:49.559Z,11.70
2022-11-28T09:43:54.560Z,11.80
2022-11-28T09:46:41.914Z,11.80
2022-11-28T09:49:53.224Z,11.90
2022-11-28T09:52:45.833Z,12.00
2022-11-28T09:55:41.557Z,12.00
2022-11-28T09:58:36.777Z,12.10
2022-11-28T10:01:38.337Z,12.10
2022-11-28T10:04:49.473Z,12.20
2022-11-28T10:07:55.098Z,12.20
2022-11-28T10:11:00.990Z,12.20
2022-11-28T10:14:09.961Z,12.30
2022-11-28T10:17:02.658Z,12.40
2022-11-28T10:20:04.253Z,12.40
2022-11-28T10:22:57.894Z,12.40
2022-11-28T10:25:50.895Z,12.40
2022-11-28T10:28:50.162Z,12.50
2022-11-28T10:31:40.923Z,12.50
2022-11-28T10:34:34.550Z,12.50
2022-11-28T10:37:25.581Z,12.50
2022-11-28T10:40:24.788Z,12.60
2022-11-28T10:43:44.067Z,12.60
2022-11-28T10:46:41.474Z,12.60
2022-11-28T10:49:41.924Z,12.70
2022-11-28T10:52:51.759Z,12.80
2022-11-28T10:56:08.521Z,12.90
2022-11-28T10:59:08.071Z,12.90
2022-11-28T11:01:56.674Z,13.00
2022-11-28T11:04:42.323Z,13.10
2022-11-28T11:07:32.730Z,13.10
2022-11-28T11:10:30.577Z,13.10
2022-11-28T11:13:24.938Z,13.00
2022-11-28T11:16:11.661Z,12.90
2022-11-28T11:19:00.427Z,12.90
2022-11-28T11:22:02.577Z,12.80
2022-11-28T11:25:13.036Z,12.90
2022-11-28T11:28:02.183Z,12.90
2022-11-28T11:30:47.842Z,12.80
2022-11-28T11:33:40.321Z,12.80
2022-11-28T11:36:29.078Z,12.80
2022-11-28T11:39:15.142Z,12.80
2022-11-28T11:42:00.741Z,12.80
2022-11-28T11:44:46.545Z,12.80
2022-11-28T11:47:43.513Z,12.80
2022-11-28T11:50:37.392Z,12.80
2022-11-28T11:53:22.765Z,12.90
2022-11-28T11:56:09.786Z,12.90
2022-11-28T11:58:58.105Z,12.90
2022-11-28T12:01:46.538Z,13.00
2022-11-28T12:04:46.476Z,13.00
2022-11-28T12:08:03.678Z,13.00
2022-11-28T12:10:55.757Z,13.00
2022-11-28T12:13:41.258Z,13.00
2022-11-28T12:16:38.186Z,13.00
2022-11-28T12:19:54.398Z,13.10
2022-11-28T12:23:18.149Z,13.10
2022-11-28T12:26:31.018Z,13.10
2022-11-28T12:29:46.557Z,13.00
2022-11-28T12:32:54.026Z,13.10
2022-11-28T12:35:41.250Z,13.10
2022-11-28T12:38:48.212Z,13.10
2022-11-28T12:42:04.151Z,13.10
2022-11-28T12:44:54.079Z,13.10
2022-11-28T12:48:21.826Z,13.10
2022-11-28T12:51:52.995Z,13.10
2022-11-28T12:55:10.720Z,13.10
2022-11-28T12:58:27.374Z,13.10
2022-11-28T13:01:37.249Z,13.10
2022-11-28T13:04:52.739Z,13.30
2022-11-28T13:07:47.178Z,13.30
2022-11-28T13:11:20.504Z,13.40
2022-11-28T13:14:31.258Z,13.40
2022-11-28T13:17:33.145Z,13.50
2022-11-28T13:20:42.959Z,13.40
2022-11-28T13:23:50.280Z,13.40
2022-11-28T13:26:43.624Z,13.40
2022-11-28T13:29:28.896Z,13.30
2022-11-28T13:32:17.443Z,13.30
2022-11-28T13:35:04.395Z,13.30
2022-11-28T13:41:43.097Z,13.30
2022-11-28T13:44:35.212Z,13.20
2022-11-28T13:47:23.597Z,13.20
2022-11-28T13:50:28.145Z,13.10
2022-11-28T13:53:24.379Z,13.10
2022-11-28T13:56:28.426Z,13.10
2022-11-28T13:59:21.802Z,13.10
2022-11-28T14:02:25.446Z,13.20
2022-11-28T14:05:33.735Z,13.10
2022-11-28T14:08:34.431Z,13.10
2022-11-28T14:11:38.471Z,13.10
2022-11-28T14:14:55.951Z,13.10
2022-11-28T14:18:39.015Z,13.10
2022-11-28T14:21:37.582Z,13.10
2022-11-28T14:24:44.581Z,13.10
2022-11-28T14:27:34.083Z,13.10
2022-11-28T14:30:32.056Z,13.20
2022-11-28T14:33:20.605Z,13.30
2022-11-28T14:36:37.681Z,13.20
2022-11-28T14:39:34.728Z,13.20
2022-11-28T14:42:51.799Z,13.20
2022-11-28T14:45:43.673Z,13.10
2022-11-28T14:48:30.699Z,13.10
2022-11-28T14:51:17.180Z,13.00
2022-11-28T14:54:02.545Z,12.90
2022-11-28T14:56:52.924Z,12.80
2022-11-28T14:59:41.214Z,12.70
2022-11-28T15:02:34.066Z,12.60
2022-11-28T15:05:36.501Z,12.50
2022-11-28T15:08:47.562Z,12.30
2022-11-28T15:11:58.476Z,12.20
2022-11-28T15:14:50.535Z,12.10
2022-11-28T15:17:36.123Z,12.00
2022-11-28T15:20:42.497Z,11.90
2022-11-28T15:23:33.654Z,11.80
2022-11-28T15:26:27.857Z,11.70
2022-11-28T15:29:22.354Z,11.60
2022-11-28T15:32:07.549Z,11.60
2022-11-28T15:35:20.830Z,11.50
2022-11-28T15:38:06.245Z,11.50
2022-11-28T15:40:53.425Z,11.40
2022-11-28T15:43:43.887Z,11.30
2022-11-28T15:46:34.399Z,11.30
2022-11-28T15:49:32.811Z,11.20
2022-11-28T15:52:18.691Z,11.20
2022-11-28T15:55:17.249Z,11.10
2022-11-28T15:58:25.441Z,11.10
2022-11-28T16:01:25.533Z,11.10
2022-11-28T16:04:15.109Z,11.10
2022-11-28T16:07:02.079Z,11.10
2022-11-28T16:10:01.361Z,11.00
2022-11-28T16:12:50.022Z,11.00
2022-11-28T16:15:35.758Z,11.00
2022-11-28T16:18:21.475Z,11.00
2022-11-28T16:21:12.870Z,11.00
2022-11-28T16:24:00.607Z,11.00
2022-11-28T16:26:55.706Z,11.00
2022-11-28T16:29:46.350Z,11.00
2022-11-28T16:32:41.083Z,11.00
2022-11-28T16:35:33.830Z,11.00
2022-11-28T16:38:23.770Z,11.00
2022-11-28T16:41:18.066Z,11.00
2022-11-28T16:44:14.515Z,10.90
2022-11-28T16:47:00.536Z,10.90
2022-11-28T16:50:16.244Z,10.90
2022-11-28T16:53:02.994Z,10.90
2022-11-28T16:55:48.609Z,10.90
2022-11-28T16:58:33.952Z,10.90
2022-11-28T17:01:21.437Z,10.90
2022-11-28T17:04:07.598Z,10.90
2022-11-28T17:06:56.070Z,10.90
2022-11-28T17:09:52.291Z,10.80
2022-11-28T17:12:39.103Z,10.80
2022-11-28T17:15:24.369Z,10.80
2022-11-28T17:18:09.950Z,10.80
2022-11-28T17:20:55.419Z,10.80
2022-11-28T17:23:44.630Z,10.80
2022-11-28T17:26:30.030Z,10.80
2022-11-28T17:29:16.486Z,10.80
2022-11-28T17:32:02.339Z,10.80
2022-11-28T17:34:47.566Z,10.80
2022-11-28T17:37:35.370Z,10.80
2022-11-28T17:40:36.923Z,10.70
2022-11-28T17:43:22.971Z,10.80
2022-11-28T17:46:08.564Z,10.80
2022-11-28T17:48:56.564Z,10.90
2022-11-28T17:51:42.705Z,10.90
2022-11-28T17:54:28.516Z,10.90
2022-11-28T17:57:14.159Z,10.90
2022-11-28T18:00:00.975Z,10.90
2022-11-28T18:02:46.233Z,10.90
2022-11-28T18:05:34.371Z,10.90
2022-11-28T18:08:22.268Z,10.90
2022-11-28T18:11:10.178Z,10.90
2022-11-28T18:13:58.578Z,11.00
2022-11-28T18:16:44.704Z,11.00
2022-11-28T18:19:31.254Z,11.00
2022-11-28T18:22:20.440Z,11.10
2022-11-28T18:25:08.359Z,11.10
2022-11-28T18:27:53.562Z,11.10
2022-11-28T18:30:47.120Z,11.10
2022-11-28T18:33:36.625Z,11.10
2022-11-28T18:36:24.598Z,11.10
2022-11-28T18:39:13.596Z,11.10
2022-11-28T18:42:00.249Z,11.10
2022-11-28T18:44:48.669Z,11.20
2022-11-28T18:47:35.959Z,11.20
2022-11-28T18:50:21.929Z,11.20
2022-11-28T18:53:09.869Z,11.20
2022-11-28T18:56:03.398Z,11.20
2022-11-28T18:58:51.845Z,11.20
2022-11-28T19:01:38.411Z,11.20
2022-11-28T19:04:23.867Z,11.20
2022-11-28T19:07:09.594Z,11.20
2022-11-28T19:09:55.549Z,11.10
2022-11-28T19:12:41.153Z,11.10
2022-11-28T19:15:26.795Z,11.10
2022-11-28T19:18:12.260Z,11.00
2022-11-28T19:21:00.198Z,10.90
2022-11-28T19:23:48.985Z,10.90
2022-11-28T19:26:35.642Z,10.90
2022-11-28T19:29:21.250Z,10.90
2022-11-28T19:32:07.275Z,10.80
2022-11-28T19:34:53.762Z,10.80
2022-11-28T19:37:39.254Z,10.80
2022-11-28T19:40:25.074Z,10.70
2022-11-28T19:43:10.469Z,10.70
2022-11-28T19:45:57.164Z,10.70
2022-11-28T19:48:43.325Z,10.70
2022-11-28T19:51:31.983Z,10.70
2022-11-28T19:54:21.180Z,10.70
2022-11-28T19:57:10.362Z,10.70
2022-11-28T19:59:56.350Z,10.60
2022-11-28T20:02:41.869Z,10.60
2022-11-28T20:05:28.479Z,10.60
2022-11-28T20:08:15.118Z,10.60
2022-11-28T20:11:07.661Z,10.60
2022-11-28T20:14:00.132Z,10.60
2022-11-28T20:16:46.966Z,10.60
2022-11-28T20:19:35.228Z,10.60
2022-11-28T20:22:22.915Z,10.50
2022-11-28T20:25:08.772Z,10.50
2022-11-28T20:27:54.593Z,10.50
2022-11-28T20:30:40.627Z,10.50
2022-11-28T20:33:26.710Z,10.50
2022-11-28T20:36:15.367Z,10.50
2022-11-28T20:39:07.962Z,10.40
2022-11-28T20:41:56.002Z,10.40
2022-11-28T20:44:44.416Z,10.40
2022-11-28T20:47:31.662Z,10.30
2022-11-28T20:50:19.705Z,10.30
2022-11-28T20:53:05.291Z,10.20
2022-11-28T20:55:57.807Z,10.20
2022-11-28T20:58:44.127Z,10.20
2022-11-28T21:01:37.710Z,10.10
2022-11-28T21:04:31.697Z,10.10
2022-11-28T21:07:18.458Z,10.00
2022-11-28T21:10:04.017Z,10.00
2022-11-28T21:12:49.290Z,9.90
2022-11-28T21:15:38.380Z,9.90
2022-11-28T21:18:25.408Z,9.90
2022-11-28T21:21:17.644Z,9.90
2022-11-28T21:24:06.842Z,9.90
2022-11-28T21:26:54.261Z,9.90
2022-11-28T21:29:39.887Z,9.80
2022-11-28T21:32:28.389Z,9.80
2022-11-28T21:35:13.597Z,9.80
2022-11-28T21:37:59.211Z,9.70
2022-11-28T21:40:52.294Z,9.70
2022-11-28T21:43:38.169Z,9.70
2022-11-28T21:46:23.801Z,9.70
2022-11-28T21:49:09.193Z,9.70
2022-11-28T21:51:58.215Z,9.60
2022-11-28T21:54:43.515Z,9.60
2022-11-28T21:57:33.428Z,9.60
2022-11-28T22:00:45.696Z,9.60
2022-11-28T22:03:25.689Z,9.60
2022-11-28T22:06:23.409Z,9.60
2022-11-28T22:09:09.954Z,9.60
2022-11-28T22:11:56.281Z,9.60
2022-11-28T22:14:41.416Z,9.60
2022-11-28T22:17:27.350Z,9.60
2022-11-28T22:20:16.794Z,9.60
2022-11-28T22:23:02.361Z,9.60
2022-11-28T22:25:52.438Z,9.50
2022-11-28T22:28:39.987Z,9.60
2022-11-28T22:31:26.973Z,9.50
2022-11-28T22:34:12.669Z,9.50
2022-11-28T22:36:58.161Z,9.50
2022-11-28T22:39:43.882Z,9.50
2022-11-28T22:42:29.525Z,9.50
2022-11-28T22:45:15.123Z,9.50
2022-11-28T22:48:00.807Z,9.50
2022-11-28T22:50:46.704Z,9.50
2022-11-28T22:53:32.169Z,9.50
2022-11-28T22:56:17.756Z,9.40
2022-11-28T22:59:05.020Z,9.40
2022-11-28T23:01:51.769Z,9.40
2022-11-28T23:04:37.987Z,9.40
2022-11-28T23:07:24.139Z,9.30
2022-11-28T23:10:12.303Z,9.30
2022-11-28T23:12:57.643Z,9.30
2022-11-28T23:15:47.229Z,9.30
2022-11-28T23:18:35.473Z,9.30
2022-11-28T23:21:23.837Z,9.20
2022-11-28T23:24:22.907Z,9.20
2022-11-28T23:27:08.647Z,9.20
2022-11-28T23:29:54.093Z,9.10
2022-11-28T23:32:42.673Z,9.10
2022-11-28T23:35:28.217Z,9.10
2022-11-28T23:38:15.914Z,9.10
2022-11-28T23:41:01.442Z,9.10
2022-11-28T23:43:47.535Z,9.10
2022-11-28T23:46:34.526Z,9.00
2022-11-28T23:49:19.798Z,9.00
2022-11-28T23:52:05.238Z,9.00
2022-11-28T23:54:50.918Z,8.90
2022-11-28T23:57:38.777Z,8.80
